Riverton, WY

8:08 AM MST on February 21, 2017 (GMT -0700)
Logan Park | | Change Station
Active Advisory: Special Statement Active Notice: Public Information Statement

Elev 4984 ft 43.04 °N, 108.39 °W | Updated 1 second ago

Partly Cloudy
Partly Cloudy
47.0 °F
Feels Like 47 °F
N
0.0
Wind Variable Wind from WSW
Gusts 8.0 mph

Today
High -- | Low -- °F
--% Chance of Precip.
Yesterday
High -- | Low -- °F
Precip. -- in
Pressure 29.87 in
Visibility 10.0 miles
Clouds Few 6500 ft
Scattered Clouds 10000 ft
Windchill 47 °F
Dew Point 35 °F
Humidity 62%
Rainfall 0.00 in
Snow Depth Not available.
7:01 AM 5:53 PM
Waning Crescent, 25% visible
METAR KRIW 211453Z AUTO 19010KT 10SM FEW065 SCT100 06/01 A2990 RMK AO2 SLP115 T00610006 51006
Pressure 29.87 in
Visibility 10.0 miles
Clouds Few 6500 ft
Scattered Clouds 10000 ft
Windchill 47 °F
Dew Point 35 °F
Humidity 62%
Rainfall 0.00 in
Snow Depth Not available.
7:01 AM 5:53 PM
Waning Crescent, 25% visible
METAR KRIW 211453Z AUTO 19010KT 10SM FEW065 SCT100 06/01 A2990 RMK AO2 SLP115 T00610006 51006

Get Your Daily Forecast Email!

Thanks for signing up!

Be on the lookout for a verification email in your inbox.

You'll start receiving the daily forecast at 8 AM.

×

10-Day Weather Forecast

Almanac

Astronomy

Feb. 21, 2017 Rise Set
Actual Time
Civil Twilight
Nautical Twilight
Astronomical Twilight
Moon
Length of Visible Light
Length of Day
Tomorrow will be .
, % of the Moon is Illuminated

Today's Extremes

State Highs State Lows

Community

WunderPhotos

Upload Photos

1,962,540 photos uploaded!

WunderBlog® & News

Nearby

Air Quality

  Air Quality AQ Index Pollutant
Not available.

Snow Depth

Station Depth Elevation

Earthquake Activity

City Distance Mag. Time & Date
Minimum magnitude displayed is 2.5.

Coastal Water Temperatures

Place Temperature

Stations

Nearby Weather Stations

Station Location Temp. Windchill Dew Point Humidity Wind Precip. Elev Updated Type
                   

Watches & Warnings

Special Statement
Issued: 2:39 AM MST Feb. 21, 2017 – National Weather Service

Southwest winds between 20 and 30 mph with occasional gusts to 45
mph will be common today across the Wind River basin. However, stronger
winds are expected in the Lander foothills, Beaver Rim area, and
east into Natrona County where a High Wind Warning is in effect.


21

239 am MST Tue Feb 21 2017

Southwest winds between 20 and 30 mph with occasional gusts to 45
mph will be common today across the Wind River basin. However, stronger
winds are expected in the Lander foothills, Beaver Rim area, and
east into Natrona County where a High Wind Warning is in effect.


21